Bangor, United Kingdom
Current Conditions -  °F | °C
As of 2:50 AM on Saturday 01 Nov 2014 (Local Time) from EGOV Reporting Station
Broken Clouds Broken Clouds  
Wind Chill: 57°   Ceiling: 11000
Heat Index: 57°   Visibility: 6mi
Dew Point: 54°   Wind: 20mph
Humidity: 88%   Direction: 220°SW
Pressure: 29.8"   Gusts: NA
Location:  53.23°N, 4.13°W
Report Text: EGOV 010250Z AUTO 22017KT 9999 FEW050/// BKN110/// 14/12 Q1009 RERA
Loading
Personal Weather Stations






























Interactive Weather Map
Tropical Storm Tracking
New forecast layout! Learn more

10-Day Weather Forecast

Advertisements
Track Severe Weather on mobile